KBTV

Burlington International Airport

Burlington, Vermont, USA
METAR KBTV 220954Z 12005KT 10SM BKN130 12/08 A3012 RMK AO2 SLP199 T01220083 $
Observed Flight Rules
May-22 @ 09:54 UTC (24 minutes ago) Visual Flight Rules
Wind Visibility Clouds
120° at 5 knots 10 miles
  • Broken at 13,000' AGL
Temperatures Readings
Current 12°C / 54°F
Dewpoint 8°C / 46°F
Humidity 77%
Altimeter 30.12" Hg
Pressure 1019.9 hPa
Elevation 105
METAR KBTV 220954Z 12005KT 10SM BKN130 12/08 A3012 RMK AO2 SLP199 T01220083 $
Observed Flight Rules
May-22 @ 09:54 UTC
(24 minutes ago)
VFR
Wind Visibility
120° at 5 knots 10 miles
Clouds
  • Broken at 13,000' AGL
Temperature Dewpoint
12°C / 54°F 8°C / 46°F
Humidity Altimeter Pressure
77% 30.12" Hg 1019.9 hPa